Back to Top

Language: 

My Weather Underground Personal Weather Station Historical Data with Graphs...

Delerius Weather Station Historical Data
Daily Summary for February 17, 2017 Units:  Both    English   Metric
« Previous Day
Next Day »
Daily Weekly Monthly Yearly Custom
  High: Low: Average:
Temperature: 51.0 °F /  10.6 °C 44.4 °F /  6.9 °C 47.5 °F /  8.6 °C
Dew Point: 46.7 °F /  8.2 °C 42.2 °F /  5.7 °C 44.3 °F /  6.8 °C
Humidity: 94 % 80 % 89 %
Wind Speed: 8.0 mph /  12.9 km/h - 2.3 mph /  3.7 km/h
Wind Gust: 12.0 mph /  19.3 km/h - -
Wind:- - WSW
Pressure: 30.33 in /  1027 hPa 30.24 in /  1023.9 hPa -
Precipitation: 0.00 in /  0 mm    
Historical Graphs
 
 
Tabular Data for February 17, 2017
Time Temperature Dew Point Pressure Wind Wind Speed Wind Gust Humidity Rainfall Rate (Hourly) solar Conditions
00:05 46.7 °F /  8.2 °C 43.9 °F /  6.6 °C 30.28 in /  1025.3 hPa West 6.0 mph /  9.7 km/h 12.0 mph /  19.3 km/h 90 % 0.00 in /  0 mm 0 W/m2
00:15 46.8 °F /  8.2 °C 44.0 °F /  6.7 °C 30.27 in /  1024.9 hPa WSW 6.0 mph /  9.7 km/h 6.0 mph /  9.7 km/h 90 % 0.00 in /  0 mm 0 W/m2
00:20 46.8 °F /  8.2 °C 44.0 °F /  6.7 °C 30.27 in /  1024.9 hPa WSW 6.0 mph /  9.7 km/h 7.0 mph /  11.3 km/h 90 % 0.00 in /  0 mm 0 W/m2
00:25 46.8 °F /  8.2 °C 44.0 °F /  6.7 °C 30.27 in /  1024.9 hPa West 7.0 mph /  11.3 km/h 7.0 mph /  11.3 km/h 90 % 0.00 in /  0 mm 0 W/m2
00:30 46.9 °F /  8.3 °C 43.8 °F /  6.6 °C 30.27 in /  1024.9 hPa SW 7.0 mph /  11.3 km/h 8.0 mph /  12.9 km/h 89 % 0.00 in /  0 mm 0 W/m2
00:40 46.9 °F /  8.3 °C 43.8 °F /  6.6 °C 30.28 in /  1025.3 hPa West 6.0 mph /  9.7 km/h 6.0 mph /  9.7 km/h 89 % 0.00 in /  0 mm 0 W/m2
00:45 47.0 °F /  8.3 °C 43.9 °F /  6.6 °C 30.28 in /  1025.3 hPa WNW 6.0 mph /  9.7 km/h 9.0 mph /  14.5 km/h 89 % 0.00 in /  0 mm 0 W/m2
00:50 46.9 °F /  8.3 °C 43.8 °F /  6.6 °C 30.28 in /  1025.3 hPa West 6.0 mph /  9.7 km/h 6.0 mph /  9.7 km/h 89 % 0.00 in /  0 mm 0 W/m2
00:55 46.9 °F /  8.3 °C 43.8 °F /  6.6 °C 30.28 in /  1025.3 hPa West 7.0 mph /  11.3 km/h 8.0 mph /  12.9 km/h 89 % 0.00 in /  0 mm 0 W/m2
01:00 46.8 °F /  8.2 °C 43.7 °F /  6.5 °C 30.28 in /  1025.3 hPa WNW 6.0 mph /  9.7 km/h 6.0 mph /  9.7 km/h 89 % 0.00 in /  0 mm 0 W/m2
01:10 46.8 °F /  8.2 °C 44.0 °F /  6.7 °C 30.28 in /  1025.3 hPa West 8.0 mph /  12.9 km/h 8.0 mph /  12.9 km/h 90 % 0.00 in /  0 mm 0 W/m2
01:15 46.9 °F /  8.3 °C 44.1 °F /  6.7 °C 30.28 in /  1025.3 hPa WSW 7.0 mph /  11.3 km/h 12.0 mph /  19.3 km/h 90 % 0.00 in /  0 mm 0 W/m2
01:25 46.8 °F /  8.2 °C 44.0 °F /  6.7 °C 30.28 in /  1025.3 hPa West 4.0 mph /  6.4 km/h 7.0 mph /  11.3 km/h 90 % 0.00 in /  0 mm 0 W/m2
01:30 46.8 °F /  8.2 °C 44.0 °F /  6.7 °C 30.28 in /  1025.3 hPa West 4.0 mph /  6.4 km/h 12.0 mph /  19.3 km/h 90 % 0.00 in /  0 mm 0 W/m2
01:35 46.9 °F /  8.3 °C 44.1 °F /  6.7 °C 30.28 in /  1025.3 hPa West 5.0 mph /  8 km/h 12.0 mph /  19.3 km/h 90 % 0.00 in /  0 mm 0 W/m2
01:45 47.0 °F /  8.3 °C 43.9 °F /  6.6 °C 30.29 in /  1025.6 hPa WSW 6.0 mph /  9.7 km/h 12.0 mph /  19.3 km/h 89 % 0.00 in /  0 mm 0 W/m2
01:50 47.1 °F /  8.4 °C 44.0 °F /  6.7 °C 30.28 in /  1025.3 hPa NW 6.0 mph /  9.7 km/h 6.0 mph /  9.7 km/h 89 % 0.00 in /  0 mm 0 W/m2
01:55 47.0 °F /  8.3 °C 43.9 °F /  6.6 °C 30.28 in /  1025.3 hPa West 6.0 mph /  9.7 km/h 9.0 mph /  14.5 km/h 89 % 0.00 in /  0 mm 0 W/m2
02:00 47.0 °F /  8.3 °C 43.9 °F /  6.6 °C 30.28 in /  1025.3 hPa WNW 8.0 mph /  12.9 km/h 8.0 mph /  12.9 km/h 89 % 0.00 in /  0 mm 0 W/m2
02:10 46.6 °F /  8.1 °C 43.5 °F /  6.4 °C 30.27 in /  1024.9 hPa WNW 8.0 mph /  12.9 km/h 8.0 mph /  12.9 km/h 89 % 0.00 in /  0 mm 0 W/m2
02:15 46.5 °F /  8.1 °C 43.4 °F /  6.3 °C 30.28 in /  1025.3 hPa WNW 8.0 mph /  12.9 km/h 12.0 mph /  19.3 km/h 89 % 0.00 in /  0 mm 0 W/m2
02:20 46.3 °F /  7.9 °C 43.2 °F /  6.2 °C 30.28 in /  1025.3 hPa WNW 7.0 mph /  11.3 km/h 7.0 mph /  11.3 km/h 89 % 0.00 in /  0 mm 0 W/m2
02:25 46.1 °F /  7.8 °C 43.3 °F /  6.3 °C 30.28 in /  1025.3 hPa WNW 6.0 mph /  9.7 km/h 12.0 mph /  19.3 km/h 90 % 0.00 in /  0 mm 0 W/m2
02:35 45.8 °F /  7.7 °C 43.0 °F /  6.1 °C 30.28 in /  1025.3 hPa WNW 5.0 mph /  8 km/h 12.0 mph /  19.3 km/h 90 % 0.00 in /  0 mm 0 W/m2
02:40 45.6 °F /  7.6 °C 42.8 °F /  6 °C 30.27 in /  1024.9 hPa WNW 4.0 mph /  6.4 km/h 12.0 mph /  19.3 km/h 90 % 0.00 in /  0 mm 0 W/m2
02:45 45.5 °F /  7.5 °C 42.7 °F /  5.9 °C 30.27 in /  1024.9 hPa WNW 4.0 mph /  6.4 km/h 12.0 mph /  19.3 km/h 90 % 0.00 in /  0 mm 0 W/m2
02:55 45.2 °F /  7.3 °C 42.7 °F /  5.9 °C 30.27 in /  1024.9 hPa WNW 4.0 mph /  6.4 km/h 12.0 mph /  19.3 km/h 91 % 0.00 in /  0 mm 0 W/m2
03:00 45.3 °F /  7.4 °C 42.8 °F /  6 °C 30.27 in /  1024.9 hPa WNW 5.0 mph /  8 km/h 12.0 mph /  19.3 km/h 91 % 0.00 in /  0 mm 0 W/m2
03:10 45.3 °F /  7.4 °C 42.8 °F /  6 °C 30.27 in /  1024.9 hPa WNW 5.0 mph /  8 km/h 12.0 mph /  19.3 km/h 91 % 0.00 in /  0 mm 0 W/m2
03:15 45.3 °F /  7.4 °C 42.8 °F /  6 °C 30.27 in /  1024.9 hPa NW 5.0 mph /  8 km/h 12.0 mph /  19.3 km/h 91 % 0.00 in /  0 mm 0 W/m2
03:20 45.2 °F /  7.3 °C 42.7 °F /  5.9 °C 30.26 in /  1024.6 hPa WNW 5.0 mph /  8 km/h 5.0 mph /  8 km/h 91 % 0.00 in /  0 mm 0 W/m2
03:30 45.2 °F /  7.3 °C 42.7 °F /  5.9 °C 30.27 in /  1024.9 hPa NW 4.0 mph /  6.4 km/h 4.0 mph /  6.4 km/h 91 % 0.00 in /  0 mm 0 W/m2
03:35 45.1 °F /  7.3 °C 42.6 °F /  5.9 °C 30.27 in /  1024.9 hPa NNW 2.0 mph /  3.2 km/h 12.0 mph /  19.3 km/h 91 % 0.00 in /  0 mm 0 W/m2
03:40 45.0 °F /  7.2 °C 42.5 °F /  5.8 °C 30.27 in /  1024.9 hPa SSW 1.0 mph /  1.6 km/h 12.0 mph /  19.3 km/h 91 % 0.00 in /  0 mm 0 W/m2
03:45 44.9 °F /  7.2 °C 42.4 °F /  5.8 °C 30.27 in /  1024.9 hPa SSW 1.0 mph /  1.6 km/h 12.0 mph /  19.3 km/h 91 % 0.00 in /  0 mm 0 W/m2
03:55 44.6 °F /  7 °C 42.4 °F /  5.8 °C 30.27 in /  1024.9 hPa Calm   12.0 mph /  19.3 km/h 92 % 0.00 in /  0 mm 0 W/m2
04:00 44.5 °F /  6.9 °C 42.3 °F /  5.7 °C 30.27 in /  1024.9 hPa Calm   12.0 mph /  19.3 km/h 92 % 0.00 in /  0 mm 0 W/m2
04:05 44.5 °F /  6.9 °C 42.3 °F /  5.7 °C 30.28 in /  1025.3 hPa Calm   12.0 mph /  19.3 km/h 92 % 0.00 in /  0 mm 0 W/m2
04:10 44.4 °F /  6.9 °C 42.2 °F /  5.7 °C 30.28 in /  1025.3 hPa Calm   12.0 mph /  19.3 km/h 92 % 0.00 in /  0 mm 0 W/m2
04:20 44.5 °F /  6.9 °C 42.6 °F /  5.9 °C 30.28 in /  1025.3 hPa Calm   12.0 mph /  19.3 km/h 93 % 0.00 in /  0 mm 0 W/m2
04:25 44.6 °F /  7 °C 42.7 °F /  5.9 °C 30.28 in /  1025.3 hPa Calm   12.0 mph /  19.3 km/h 93 % 0.00 in /  0 mm 0 W/m2
04:30 44.6 °F /  7 °C 42.7 °F /  5.9 °C 30.28 in /  1025.3 hPa SSW 1.0 mph /  1.6 km/h 1.0 mph /  1.6 km/h 93 % 0.00 in /  0 mm 0 W/m2
04:40 44.6 °F /  7 °C 42.7 °F /  5.9 °C 30.28 in /  1025.3 hPa Calm   12.0 mph /  19.3 km/h 93 % 0.00 in /  0 mm 0 W/m2
04:45 44.6 °F /  7 °C 42.7 °F /  5.9 °C 30.28 in /  1025.3 hPa Calm   12.0 mph /  19.3 km/h 93 % 0.00 in /  0 mm 0 W/m2
04:50 44.5 °F /  6.9 °C 42.6 °F /  5.9 °C 30.28 in /  1025.3 hPa Calm   12.0 mph /  19.3 km/h 93 % 0.00 in /  0 mm 0 W/m2
04:55 44.6 °F /  7 °C 42.7 °F /  5.9 °C 30.27 in /  1024.9 hPa SSW 1.0 mph /  1.6 km/h 12.0 mph /  19.3 km/h 93 % 0.00 in /  0 mm 0 W/m2
05:05 44.7 °F /  7.1 °C 42.8 °F /  6 °C 30.28 in /  1025.3 hPa SW 1.0 mph /  1.6 km/h 12.0 mph /  19.3 km/h 93 % 0.00 in /  0 mm 0 W/m2
05:10 44.7 °F /  7.1 °C 42.8 °F /  6 °C 30.28 in /  1025.3 hPa SW 1.0 mph /  1.6 km/h 12.0 mph /  19.3 km/h 93 % 0.00 in /  0 mm 0 W/m2
05:15 44.8 °F /  7.1 °C 43.2 °F /  6.2 °C 30.29 in /  1025.6 hPa SW 1.0 mph /  1.6 km/h 12.0 mph /  19.3 km/h 94 % 0.00 in /  0 mm 0 W/m2
05:20 45.0 °F /  7.2 °C 43.4 °F /  6.3 °C 30.29 in /  1025.6 hPa SW 1.0 mph /  1.6 km/h 1.0 mph /  1.6 km/h 94 % 0.00 in /  0 mm 0 W/m2
05:30 45.2 °F /  7.3 °C 43.3 °F /  6.3 °C 30.28 in /  1025.3 hPa WSW 1.0 mph /  1.6 km/h 12.0 mph /  19.3 km/h 93 % 0.00 in /  0 mm 0 W/m2
05:35 45.2 °F /  7.3 °C 43.3 °F /  6.3 °C 30.28 in /  1025.3 hPa WSW 1.0 mph /  1.6 km/h 12.0 mph /  19.3 km/h 93 % 0.00 in /  0 mm 0 W/m2
05:40 45.2 °F /  7.3 °C 43.3 °F /  6.3 °C 30.28 in /  1025.3 hPa WSW 1.0 mph /  1.6 km/h 1.0 mph /  1.6 km/h 93 % 0.00 in /  0 mm 0 W/m2
05:45 45.2 °F /  7.3 °C 43.3 °F /  6.3 °C 30.29 in /  1025.6 hPa Calm   12.0 mph /  19.3 km/h 93 % 0.00 in /  0 mm 0 W/m2
05:55 45.2 °F /  7.3 °C 43.3 °F /  6.3 °C 30.28 in /  1025.3 hPa Calm   12.0 mph /  19.3 km/h 93 % 0.00 in /  0 mm 0 W/m2
06:00 45.2 °F /  7.3 °C 43.3 °F /  6.3 °C 30.28 in /  1025.3 hPa NW 1.0 mph /  1.6 km/h 12.0 mph /  19.3 km/h 93 % 0.00 in /  0 mm 0 W/m2
06:05 45.2 °F /  7.3 °C 43.6 °F /  6.4 °C 30.28 in /  1025.3 hPa NW 3.0 mph /  4.8 km/h 12.0 mph /  19.3 km/h 94 % 0.00 in /  0 mm 0 W/m2
06:15 45.4 °F /  7.4 °C 43.8 °F /  6.6 °C 30.28 in /  1025.3 hPa WNW 2.0 mph /  3.2 km/h 12.0 mph /  19.3 km/h 94 % 0.00 in /  0 mm 0 W/m2
06:20 45.4 °F /  7.4 °C 43.8 °F /  6.6 °C 30.28 in /  1025.3 hPa WNW 1.0 mph /  1.6 km/h 1.0 mph /  1.6 km/h 94 % 0.00 in /  0 mm 0 W/m2
06:25 45.4 °F /  7.4 °C 43.5 °F /  6.4 °C 30.28 in /  1025.3 hPa Calm   12.0 mph /  19.3 km/h 93 % 0.00 in /  0 mm 0 W/m2
06:30 45.4 °F /  7.4 °C 43.5 °F /  6.4 °C 30.28 in /  1025.3 hPa Calm   12.0 mph /  19.3 km/h 93 % 0.00 in /  0 mm 0 W/m2
06:40 45.4 °F /  7.4 °C 43.8 °F /  6.6 °C 30.29 in /  1025.6 hPa WNW 1.0 mph /  1.6 km/h 1.0 mph /  1.6 km/h 94 % 0.00 in /  0 mm 0 W/m2
06:45 45.4 °F /  7.4 °C 43.8 °F /  6.6 °C 30.29 in /  1025.6 hPa Calm   12.0 mph /  19.3 km/h 94 % 0.00 in /  0 mm 0 W/m2
06:50 45.3 °F /  7.4 °C 43.7 °F /  6.5 °C 30.29 in /  1025.6 hPa Calm   12.0 mph /  19.3 km/h 94 % 0.00 in /  0 mm 0 W/m2
07:00 45.5 °F /  7.5 °C 43.9 °F /  6.6 °C 30.29 in /  1025.6 hPa WNW 1.0 mph /  1.6 km/h 12.0 mph /  19.3 km/h 94 % 0.00 in /  0 mm 0 W/m2
07:05 45.5 °F /  7.5 °C 43.9 °F /  6.6 °C 30.29 in /  1025.6 hPa WNW 1.0 mph /  1.6 km/h 12.0 mph /  19.3 km/h 94 % 0.00 in /  0 mm 0 W/m2
07:10 45.6 °F /  7.6 °C 44.0 °F /  6.7 °C 30.29 in /  1025.6 hPa WNW 1.0 mph /  1.6 km/h 1.0 mph /  1.6 km/h 94 % 0.00 in /  0 mm 0 W/m2
07:15 45.6 °F /  7.6 °C 44.0 °F /  6.7 °C 30.29 in /  1025.6 hPa WNW 1.0 mph /  1.6 km/h 12.0 mph /  19.3 km/h 94 % 0.00 in /  0 mm 0 W/m2
07:25 45.6 °F /  7.6 °C 44.0 °F /  6.7 °C 30.29 in /  1025.6 hPa WNW 1.0 mph /  1.6 km/h 12.0 mph /  19.3 km/h 94 % 0.00 in /  0 mm 5 W/m2
07:30 45.7 °F /  7.6 °C 44.1 °F /  6.7 °C 30.30 in /  1026 hPa WNW 1.0 mph /  1.6 km/h 1.0 mph /  1.6 km/h 94 % 0.00 in /  0 mm 9 W/m2
07:35 45.8 °F /  7.7 °C 44.2 °F /  6.8 °C 30.30 in /  1026 hPa Calm   12.0 mph /  19.3 km/h 94 % 0.00 in /  0 mm 11 W/m2
07:45 45.8 °F /  7.7 °C 44.2 °F /  6.8 °C 30.30 in /  1026 hPa Calm   12.0 mph /  19.3 km/h 94 % 0.00 in /  0 mm 14 W/m2
07:50 45.8 °F /  7.7 °C 44.2 °F /  6.8 °C 30.30 in /  1026 hPa Calm   12.0 mph /  19.3 km/h 94 % 0.00 in /  0 mm 16 W/m2
07:55 45.8 °F /  7.7 °C 44.2 °F /  6.8 °C 30.30 in /  1026 hPa Calm   12.0 mph /  19.3 km/h 94 % 0.00 in /  0 mm 19 W/m2
08:00 45.7 °F /  7.6 °C 44.1 °F /  6.7 °C 30.30 in /  1026 hPa Calm   12.0 mph /  19.3 km/h 94 % 0.00 in /  0 mm 25 W/m2
08:05 45.8 °F /  7.7 °C 44.2 °F /  6.8 °C 30.30 in /  1026 hPa Calm   12.0 mph /  19.3 km/h 94 % 0.00 in /  0 mm 23 W/m2
08:10 45.8 °F /  7.7 °C 44.2 °F /  6.8 °C 30.31 in /  1026.3 hPa Calm   12.0 mph /  19.3 km/h 94 % 0.00 in /  0 mm 26 W/m2
08:15 45.8 °F /  7.7 °C 44.2 °F /  6.8 °C 30.31 in /  1026.3 hPa Calm   12.0 mph /  19.3 km/h 94 % 0.00 in /  0 mm 33 W/m2
08:20 45.9 °F /  7.7 °C 44.3 °F /  6.8 °C 30.31 in /  1026.3 hPa Calm   12.0 mph /  19.3 km/h 94 % 0.00 in /  0 mm 33 W/m2
08:30 46.1 °F /  7.8 °C 44.5 °F /  6.9 °C 30.31 in /  1026.3 hPa WNW 1.0 mph /  1.6 km/h 12.0 mph /  19.3 km/h 94 % 0.00 in /  0 mm 28 W/m2
08:35 46.3 °F /  7.9 °C 44.7 °F /  7.1 °C 30.31 in /  1026.3 hPa WNW 1.0 mph /  1.6 km/h 12.0 mph /  19.3 km/h 94 % 0.00 in /  0 mm 30 W/m2
08:40 46.4 °F /  8 °C 44.8 °F /  7.1 °C 30.31 in /  1026.3 hPa Calm   12.0 mph /  19.3 km/h 94 % 0.00 in /  0 mm 44 W/m2
08:50 46.6 °F /  8.1 °C 45.0 °F /  7.2 °C 30.31 in /  1026.3 hPa WNW 1.0 mph /  1.6 km/h 12.0 mph /  19.3 km/h 94 % 0.00 in /  0 mm 56 W/m2
08:55 46.8 °F /  8.2 °C 45.2 °F /  7.3 °C 30.32 in /  1026.6 hPa WNW 2.0 mph /  3.2 km/h 12.0 mph /  19.3 km/h 94 % 0.00 in /  0 mm 56 W/m2
09:00 46.9 °F /  8.3 °C 45.3 °F /  7.4 °C 30.32 in /  1026.6 hPa WNW 1.0 mph /  1.6 km/h 12.0 mph /  19.3 km/h 94 % 0.00 in /  0 mm 60 W/m2
09:10 47.3 °F /  8.5 °C 45.7 °F /  7.6 °C 30.32 in /  1026.6 hPa West 2.0 mph /  3.2 km/h 2.0 mph /  3.2 km/h 94 % 0.00 in /  0 mm 49 W/m2
09:15 47.4 °F /  8.6 °C 45.8 °F /  7.7 °C 30.32 in /  1026.6 hPa West 2.0 mph /  3.2 km/h 12.0 mph /  19.3 km/h 94 % 0.00 in /  0 mm 60 W/m2
09:20 47.5 °F /  8.6 °C 45.6 °F /  7.6 °C 30.32 in /  1026.6 hPa West 1.0 mph /  1.6 km/h 12.0 mph /  19.3 km/h 93 % 0.00 in /  0 mm 69 W/m2
09:25 47.6 °F /  8.7 °C 45.7 °F /  7.6 °C 30.32 in /  1026.6 hPa WNW 2.0 mph /  3.2 km/h 12.0 mph /  19.3 km/h 93 % 0.00 in /  0 mm 62 W/m2
09:35 47.8 °F /  8.8 °C 45.9 °F /  7.7 °C 30.32 in /  1026.6 hPa WNW 2.0 mph /  3.2 km/h 12.0 mph /  19.3 km/h 93 % 0.00 in /  0 mm 83 W/m2
09:40 47.8 °F /  8.8 °C 45.9 °F /  7.7 °C 30.32 in /  1026.6 hPa WNW 3.0 mph /  4.8 km/h 3.0 mph /  4.8 km/h 93 % 0.00 in /  0 mm 65 W/m2
09:50 47.9 °F /  8.8 °C 45.7 °F /  7.6 °C 30.32 in /  1026.6 hPa WNW 2.0 mph /  3.2 km/h 12.0 mph /  19.3 km/h 92 % 0.00 in /  0 mm 62 W/m2
10:00 48.1 °F /  8.9 °C 45.9 °F /  7.7 °C 30.32 in /  1026.6 hPa WNW 2.0 mph /  3.2 km/h 2.0 mph /  3.2 km/h 92 % 0.00 in /  0 mm 76 W/m2
10:05 48.1 °F /  8.9 °C 45.9 °F /  7.7 °C 30.33 in /  1027 hPa WNW 2.0 mph /  3.2 km/h 12.0 mph /  19.3 km/h 92 % 0.00 in /  0 mm 77 W/m2
10:10 48.2 °F /  9 °C 46.0 °F /  7.8 °C 30.32 in /  1026.6 hPa WNW 2.0 mph /  3.2 km/h 12.0 mph /  19.3 km/h 92 % 0.00 in /  0 mm 90 W/m2
10:15 48.3 °F /  9.1 °C 46.1 °F /  7.8 °C 30.32 in /  1026.6 hPa WNW 2.0 mph /  3.2 km/h 12.0 mph /  19.3 km/h 92 % 0.00 in /  0 mm 83 W/m2
10:20 48.3 °F /  9.1 °C 45.8 °F /  7.7 °C 30.33 in /  1027 hPa WNW 3.0 mph /  4.8 km/h 12.0 mph /  19.3 km/h 91 % 0.00 in /  0 mm 70 W/m2
10:25 48.4 °F /  9.1 °C 45.9 °F /  7.7 °C 30.33 in /  1027 hPa WSW 3.0 mph /  4.8 km/h 12.0 mph /  19.3 km/h 91 % 0.00 in /  0 mm 83 W/m2
10:30 48.5 °F /  9.2 °C 46.0 °F /  7.8 °C 30.32 in /  1026.6 hPa WNW 3.0 mph /  4.8 km/h 12.0 mph /  19.3 km/h 91 % 0.00 in /  0 mm 95 W/m2
10:40 48.7 °F /  9.3 °C 46.2 °F /  7.9 °C 30.33 in /  1027 hPa WNW 3.0 mph /  4.8 km/h 12.0 mph /  19.3 km/h 91 % 0.00 in /  0 mm 100 W/m2
10:50 48.9 °F /  9.4 °C 46.1 °F /  7.8 °C 30.32 in /  1026.6 hPa WNW 4.0 mph /  6.4 km/h 4.0 mph /  6.4 km/h 90 % 0.00 in /  0 mm 137 W/m2
10:55 49.1 °F /  9.5 °C 46.3 °F /  7.9 °C 30.32 in /  1026.6 hPa WNW 3.0 mph /  4.8 km/h 12.0 mph /  19.3 km/h 90 % 0.00 in /  0 mm 118 W/m2
11:00 49.2 °F /  9.6 °C 46.4 °F /  8 °C 30.32 in /  1026.6 hPa WNW 1.0 mph /  1.6 km/h 12.0 mph /  19.3 km/h 90 % 0.00 in /  0 mm 127 W/m2
11:05 49.4 °F /  9.7 °C 46.6 °F /  8.1 °C 30.32 in /  1026.6 hPa WNW 1.0 mph /  1.6 km/h 12.0 mph /  19.3 km/h 90 % 0.00 in /  0 mm 134 W/m2
11:15 49.7 °F /  9.8 °C 46.6 °F /  8.1 °C 30.32 in /  1026.6 hPa West 3.0 mph /  4.8 km/h 12.0 mph /  19.3 km/h 89 % 0.00 in /  0 mm 137 W/m2
11:25 50.0 °F /  10 °C 46.6 °F /  8.1 °C 30.32 in /  1026.6 hPa WNW 4.0 mph /  6.4 km/h 12.0 mph /  19.3 km/h 88 % 0.00 in /  0 mm 109 W/m2
11:35 50.2 °F /  10.1 °C 46.5 °F /  8.1 °C 30.32 in /  1026.6 hPa WNW 3.0 mph /  4.8 km/h 12.0 mph /  19.3 km/h 87 % 0.00 in /  0 mm 125 W/m2
11:40 50.4 °F /  10.2 °C 46.7 °F /  8.2 °C 30.32 in /  1026.6 hPa NW 2.0 mph /  3.2 km/h 12.0 mph /  19.3 km/h 87 % 0.00 in /  0 mm 114 W/m2
11:50 50.6 °F /  10.3 °C 46.6 °F /  8.1 °C 30.32 in /  1026.6 hPa West 2.0 mph /  3.2 km/h 2.0 mph /  3.2 km/h 86 % 0.00 in /  0 mm 132 W/m2
11:55 50.7 °F /  10.4 °C 46.7 °F /  8.2 °C 30.32 in /  1026.6 hPa West 1.0 mph /  1.6 km/h 12.0 mph /  19.3 km/h 86 % 0.00 in /  0 mm 130 W/m2
12:00 50.7 °F /  10.4 °C 46.4 °F /  8 °C 30.32 in /  1026.6 hPa West 1.0 mph /  1.6 km/h 12.0 mph /  19.3 km/h 85 % 0.00 in /  0 mm 134 W/m2
12:10 50.9 °F /  10.5 °C 46.6 °F /  8.1 °C 30.32 in /  1026.6 hPa West 2.0 mph /  3.2 km/h 2.0 mph /  3.2 km/h 85 % 0.00 in /  0 mm 113 W/m2
12:15 51.0 °F /  10.6 °C 46.3 °F /  7.9 °C 30.32 in /  1026.6 hPa WSW 3.0 mph /  4.8 km/h 3.0 mph /  4.8 km/h 84 % 0.00 in /  0 mm 135 W/m2
12:25 51.0 °F /  10.6 °C 46.0 °F /  7.8 °C 30.32 in /  1026.6 hPa West 4.0 mph /  6.4 km/h 12.0 mph /  19.3 km/h 83 % 0.00 in /  0 mm 116 W/m2
12:30 50.8 °F /  10.4 °C 46.1 °F /  7.8 °C 30.32 in /  1026.6 hPa SW 6.0 mph /  9.7 km/h 12.0 mph /  19.3 km/h 84 % 0.00 in /  0 mm 125 W/m2
12:35 50.7 °F /  10.4 °C 46.0 °F /  7.8 °C 30.32 in /  1026.6 hPa WSW 6.0 mph /  9.7 km/h 12.0 mph /  19.3 km/h 84 % 0.00 in /  0 mm 121 W/m2
12:40 50.6 °F /  10.3 °C 45.9 °F /  7.7 °C 30.32 in /  1026.6 hPa SW 5.0 mph /  8 km/h 12.0 mph /  19.3 km/h 84 % 0.00 in /  0 mm 107 W/m2
16:35 50.9 °F /  10.5 °C 44.9 °F /  7.2 °C 30.27 in /  1024.9 hPa South 2.0 mph /  3.2 km/h 4.0 mph /  6.4 km/h 80 % 0.00 in /  0 mm 21 W/m2
16:45 50.9 °F /  10.5 °C 44.9 °F /  7.2 °C 30.27 in /  1024.9 hPa South 1.0 mph /  1.6 km/h 1.0 mph /  1.6 km/h 80 % 0.00 in /  0 mm 18 W/m2
16:50 50.8 °F /  10.4 °C 44.9 °F /  7.2 °C 30.27 in /  1024.9 hPa SSE 1.0 mph /  1.6 km/h 1.0 mph /  1.6 km/h 80 % 0.00 in /  0 mm 11 W/m2
16:55 50.7 °F /  10.4 °C 45.1 °F /  7.3 °C 30.27 in /  1024.9 hPa South 1.0 mph /  1.6 km/h 5.0 mph /  8 km/h 81 % 0.00 in /  0 mm 7 W/m2
17:00 50.6 °F /  10.3 °C 45.0 °F /  7.2 °C 30.27 in /  1024.9 hPa SSW 2.0 mph /  3.2 km/h 2.0 mph /  3.2 km/h 81 % 0.00 in /  0 mm 5 W/m2
17:10 50.4 °F /  10.2 °C 44.8 °F /  7.1 °C 30.27 in /  1024.9 hPa SSW 1.0 mph /  1.6 km/h 1.0 mph /  1.6 km/h 81 % 0.00 in /  0 mm 0 W/m2
17:15 50.4 °F /  10.2 °C 45.1 °F /  7.3 °C 30.27 in /  1024.9 hPa SSE 1.0 mph /  1.6 km/h 2.0 mph /  3.2 km/h 82 % 0.00 in /  0 mm 0 W/m2
17:20 50.2 °F /  10.1 °C 44.9 °F /  7.2 °C 30.27 in /  1024.9 hPa SE 2.0 mph /  3.2 km/h 2.0 mph /  3.2 km/h 82 % 0.00 in /  0 mm 0 W/m2
17:25 50.2 °F /  10.1 °C 44.9 °F /  7.2 °C 30.27 in /  1024.9 hPa SSE 2.0 mph /  3.2 km/h 4.0 mph /  6.4 km/h 82 % 0.00 in /  0 mm 0 W/m2
17:30 50.1 °F /  10.1 °C 44.8 °F /  7.1 °C 30.27 in /  1024.9 hPa South 2.0 mph /  3.2 km/h 2.0 mph /  3.2 km/h 82 % 0.00 in /  0 mm 0 W/m2
17:40 49.9 °F /  9.9 °C 44.9 °F /  7.2 °C 30.27 in /  1024.9 hPa South 1.0 mph /  1.6 km/h 7.0 mph /  11.3 km/h 83 % 0.00 in /  0 mm 0 W/m2
17:45 49.8 °F /  9.9 °C 44.8 °F /  7.1 °C 30.27 in /  1024.9 hPa South 1.0 mph /  1.6 km/h 7.0 mph /  11.3 km/h 83 % 0.00 in /  0 mm 0 W/m2
17:50 49.7 °F /  9.8 °C 44.7 °F /  7.1 °C 30.27 in /  1024.9 hPa SE 2.0 mph /  3.2 km/h 7.0 mph /  11.3 km/h 83 % 0.00 in /  0 mm 0 W/m2
17:55 49.6 °F /  9.8 °C 45.0 °F /  7.2 °C 30.27 in /  1024.9 hPa SE 2.0 mph /  3.2 km/h 7.0 mph /  11.3 km/h 84 % 0.00 in /  0 mm 0 W/m2
18:00 49.5 °F /  9.7 °C 44.9 °F /  7.2 °C 30.27 in /  1024.9 hPa SE 2.0 mph /  3.2 km/h 7.0 mph /  11.3 km/h 84 % 0.00 in /  0 mm 0 W/m2
18:10 49.3 °F /  9.6 °C 44.7 °F /  7.1 °C 30.27 in /  1024.9 hPa SE 3.0 mph /  4.8 km/h 7.0 mph /  11.3 km/h 84 % 0.00 in /  0 mm 0 W/m2
18:15 49.2 °F /  9.6 °C 44.9 °F /  7.2 °C 30.27 in /  1024.9 hPa SSE 3.0 mph /  4.8 km/h 7.0 mph /  11.3 km/h 85 % 0.00 in /  0 mm 0 W/m2
18:20 49.1 °F /  9.5 °C 44.8 °F /  7.1 °C 30.27 in /  1024.9 hPa SSE 3.0 mph /  4.8 km/h 7.0 mph /  11.3 km/h 85 % 0.00 in /  0 mm 0 W/m2
18:25 49.1 °F /  9.5 °C 44.8 °F /  7.1 °C 30.27 in /  1024.9 hPa SE 3.0 mph /  4.8 km/h 7.0 mph /  11.3 km/h 85 % 0.00 in /  0 mm 0 W/m2
18:35 49.0 °F /  9.4 °C 45.0 °F /  7.2 °C 30.27 in /  1024.9 hPa SE 3.0 mph /  4.8 km/h 7.0 mph /  11.3 km/h 86 % 0.00 in /  0 mm 0 W/m2
18:40 49.1 °F /  9.5 °C 45.1 °F /  7.3 °C 30.27 in /  1024.9 hPa SE 3.0 mph /  4.8 km/h 3.0 mph /  4.8 km/h 86 % 0.00 in /  0 mm 0 W/m2
18:45 49.0 °F /  9.4 °C 45.0 °F /  7.2 °C 30.27 in /  1024.9 hPa SE 3.0 mph /  4.8 km/h 6.0 mph /  9.7 km/h 86 % 0.00 in /  0 mm 0 W/m2
18:50 49.0 °F /  9.4 °C 45.0 °F /  7.2 °C 30.27 in /  1024.9 hPa SSE 3.0 mph /  4.8 km/h 7.0 mph /  11.3 km/h 86 % 0.00 in /  0 mm 0 W/m2
18:55 49.0 °F /  9.4 °C 45.0 °F /  7.2 °C 30.27 in /  1024.9 hPa SSE 3.0 mph /  4.8 km/h 7.0 mph /  11.3 km/h 86 % 0.00 in /  0 mm 0 W/m2
19:00 48.9 °F /  9.4 °C 44.9 °F /  7.2 °C 30.27 in /  1024.9 hPa SSE 3.0 mph /  4.8 km/h 3.0 mph /  4.8 km/h 86 % 0.00 in /  0 mm 0 W/m2
19:10 48.8 °F /  9.3 °C 44.8 °F /  7.1 °C 30.26 in /  1024.6 hPa SSE 2.0 mph /  3.2 km/h 2.0 mph /  3.2 km/h 86 % 0.00 in /  0 mm 0 W/m2
19:15 48.8 °F /  9.3 °C 44.8 °F /  7.1 °C 30.26 in /  1024.6 hPa South 2.0 mph /  3.2 km/h 7.0 mph /  11.3 km/h 86 % 0.00 in /  0 mm 0 W/m2
19:20 48.7 °F /  9.3 °C 44.7 °F /  7.1 °C 30.26 in /  1024.6 hPa South 1.0 mph /  1.6 km/h 7.0 mph /  11.3 km/h 86 % 0.00 in /  0 mm 0 W/m2
19:30 48.6 °F /  9.2 °C 44.9 °F /  7.2 °C 30.26 in /  1024.6 hPa SSW 1.0 mph /  1.6 km/h 1.0 mph /  1.6 km/h 87 % 0.00 in /  0 mm 0 W/m2
19:40 48.5 °F /  9.2 °C 44.8 °F /  7.1 °C 30.26 in /  1024.6 hPa Calm   7.0 mph /  11.3 km/h 87 % 0.00 in /  0 mm 0 W/m2
19:45 48.4 °F /  9.1 °C 44.7 °F /  7.1 °C 30.26 in /  1024.6 hPa SSW 1.0 mph /  1.6 km/h 7.0 mph /  11.3 km/h 87 % 0.00 in /  0 mm 0 W/m2
19:50 48.4 °F /  9.1 °C 44.7 °F /  7.1 °C 30.26 in /  1024.6 hPa SSW 1.0 mph /  1.6 km/h 1.0 mph /  1.6 km/h 87 % 0.00 in /  0 mm 0 W/m2
19:55 48.3 °F /  9.1 °C 44.6 °F /  7 °C 30.26 in /  1024.6 hPa SSW 1.0 mph /  1.6 km/h 4.0 mph /  6.4 km/h 87 % 0.00 in /  0 mm 0 W/m2
20:05 48.3 °F /  9.1 °C 44.3 °F /  6.8 °C 30.26 in /  1024.6 hPa SSW 1.0 mph /  1.6 km/h 2.0 mph /  3.2 km/h 86 % 0.00 in /  0 mm 0 W/m2
20:10 48.3 °F /  9.1 °C 44.3 °F /  6.8 °C 30.26 in /  1024.6 hPa SSW 2.0 mph /  3.2 km/h 2.0 mph /  3.2 km/h 86 % 0.00 in /  0 mm 0 W/m2
20:15 48.3 °F /  9.1 °C 44.3 °F /  6.8 °C 30.26 in /  1024.6 hPa SW 2.0 mph /  3.2 km/h 7.0 mph /  11.3 km/h 86 % 0.00 in /  0 mm 0 W/m2
20:20 48.3 °F /  9.1 °C 44.3 °F /  6.8 °C 30.26 in /  1024.6 hPa SW 2.0 mph /  3.2 km/h 7.0 mph /  11.3 km/h 86 % 0.00 in /  0 mm 0 W/m2
20:30 48.3 °F /  9.1 °C 44.0 °F /  6.7 °C 30.26 in /  1024.6 hPa SSW 3.0 mph /  4.8 km/h 7.0 mph /  11.3 km/h 85 % 0.00 in /  0 mm 0 W/m2
20:40 48.6 °F /  9.2 °C 44.3 °F /  6.8 °C 30.26 in /  1024.6 hPa SSW 5.0 mph /  8 km/h 7.0 mph /  11.3 km/h 85 % 0.00 in /  0 mm 0 W/m2
20:45 48.6 °F /  9.2 °C 44.3 °F /  6.8 °C 30.26 in /  1024.6 hPa SSW 4.0 mph /  6.4 km/h 7.0 mph /  11.3 km/h 85 % 0.00 in /  0 mm 0 W/m2
20:50 48.6 °F /  9.2 °C 44.0 °F /  6.7 °C 30.26 in /  1024.6 hPa South 2.0 mph /  3.2 km/h 2.0 mph /  3.2 km/h 84 % 0.00 in /  0 mm 0 W/m2
20:55 48.6 °F /  9.2 °C 44.0 °F /  6.7 °C 30.26 in /  1024.6 hPa South 1.0 mph /  1.6 km/h 7.0 mph /  11.3 km/h 84 % 0.00 in /  0 mm 0 W/m2
21:05 48.4 °F /  9.1 °C 44.1 °F /  6.7 °C 30.26 in /  1024.6 hPa Calm   7.0 mph /  11.3 km/h 85 % 0.00 in /  0 mm 0 W/m2
21:15 48.2 °F /  9 °C 43.9 °F /  6.6 °C 30.26 in /  1024.6 hPa Calm   7.0 mph /  11.3 km/h 85 % 0.00 in /  0 mm 0 W/m2
21:20 48.1 °F /  8.9 °C 44.1 °F /  6.7 °C 30.26 in /  1024.6 hPa Calm   7.0 mph /  11.3 km/h 86 % 0.00 in /  0 mm 0 W/m2
21:25 48.0 °F /  8.9 °C 44.0 °F /  6.7 °C 30.26 in /  1024.6 hPa Calm   7.0 mph /  11.3 km/h 86 % 0.00 in /  0 mm 0 W/m2
21:30 48.0 °F /  8.9 °C 44.0 °F /  6.7 °C 30.26 in /  1024.6 hPa SW 1.0 mph /  1.6 km/h 7.0 mph /  11.3 km/h 86 % 0.00 in /  0 mm 0 W/m2
21:40 48.2 °F /  9 °C 44.2 °F /  6.8 °C 30.26 in /  1024.6 hPa West 2.0 mph /  3.2 km/h 2.0 mph /  3.2 km/h 86 % 0.00 in /  0 mm 0 W/m2
21:50 48.2 °F /  9 °C 43.9 °F /  6.6 °C 30.26 in /  1024.6 hPa South 1.0 mph /  1.6 km/h 7.0 mph /  11.3 km/h 85 % 0.00 in /  0 mm 0 W/m2
21:55 48.2 °F /  9 °C 43.9 °F /  6.6 °C 30.26 in /  1024.6 hPa SSW 1.0 mph /  1.6 km/h 7.0 mph /  11.3 km/h 85 % 0.00 in /  0 mm 0 W/m2
22:05 48.4 °F /  9.1 °C 44.1 °F /  6.7 °C 30.25 in /  1024.3 hPa South 3.0 mph /  4.8 km/h 7.0 mph /  11.3 km/h 85 % 0.00 in /  0 mm 0 W/m2
22:10 48.3 °F /  9.1 °C 44.0 °F /  6.7 °C 30.25 in /  1024.3 hPa SSE 3.0 mph /  4.8 km/h 3.0 mph /  4.8 km/h 85 % 0.00 in /  0 mm 0 W/m2
22:15 48.2 °F /  9 °C 43.9 °F /  6.6 °C 30.25 in /  1024.3 hPa SSE 2.0 mph /  3.2 km/h 7.0 mph /  11.3 km/h 85 % 0.00 in /  0 mm 0 W/m2
22:20 48.0 °F /  8.9 °C 44.0 °F /  6.7 °C 30.25 in /  1024.3 hPa SSE 1.0 mph /  1.6 km/h 7.0 mph /  11.3 km/h 86 % 0.00 in /  0 mm 0 W/m2
22:25 47.8 °F /  8.8 °C 43.8 °F /  6.6 °C 30.25 in /  1024.3 hPa Calm   7.0 mph /  11.3 km/h 86 % 0.00 in /  0 mm 0 W/m2
22:30 47.8 °F /  8.8 °C 43.8 °F /  6.6 °C 30.25 in /  1024.3 hPa Calm   7.0 mph /  11.3 km/h 86 % 0.00 in /  0 mm 0 W/m2
22:40 47.9 °F /  8.8 °C 43.9 °F /  6.6 °C 30.25 in /  1024.3 hPa SSE 2.0 mph /  3.2 km/h 2.0 mph /  3.2 km/h 86 % 0.00 in /  0 mm 0 W/m2
22:45 47.9 °F /  8.8 °C 43.9 °F /  6.6 °C 30.25 in /  1024.3 hPa SSE 1.0 mph /  1.6 km/h 7.0 mph /  11.3 km/h 86 % 0.00 in /  0 mm 0 W/m2
22:55 47.9 °F /  8.8 °C 43.9 °F /  6.6 °C 30.25 in /  1024.3 hPa Calm   7.0 mph /  11.3 km/h 86 % 0.00 in /  0 mm 0 W/m2
23:00 47.9 °F /  8.8 °C 43.9 °F /  6.6 °C 30.25 in /  1024.3 hPa Calm   7.0 mph /  11.3 km/h 86 % 0.00 in /  0 mm 0 W/m2
23:05 47.9 °F /  8.8 °C 43.9 °F /  6.6 °C 30.25 in /  1024.3 hPa Calm   7.0 mph /  11.3 km/h 86 % 0.00 in /  0 mm 0 W/m2
23:10 47.9 °F /  8.8 °C 43.9 °F /  6.6 °C 30.25 in /  1024.3 hPa SSW 1.0 mph /  1.6 km/h 1.0 mph /  1.6 km/h 86 % 0.00 in /  0 mm 0 W/m2
23:15 47.9 °F /  8.8 °C 43.9 °F /  6.6 °C 30.25 in /  1024.3 hPa WSW 1.0 mph /  1.6 km/h 2.0 mph /  3.2 km/h 86 % 0.00 in /  0 mm 0 W/m2
23:25 48.0 °F /  8.9 °C 44.0 °F /  6.7 °C 30.24 in /  1023.9 hPa WNW 3.0 mph /  4.8 km/h 6.0 mph /  9.7 km/h 86 % 0.00 in /  0 mm 0 W/m2
23:30 48.1 °F /  8.9 °C 44.1 °F /  6.7 °C 30.24 in /  1023.9 hPa West 5.0 mph /  8 km/h 9.0 mph /  14.5 km/h 86 % 0.00 in /  0 mm 0 W/m2
23:35 48.3 °F /  9.1 °C 44.3 °F /  6.8 °C 30.24 in /  1023.9 hPa WSW 5.0 mph /  8 km/h 9.0 mph /  14.5 km/h 86 % 0.00 in /  0 mm 0 W/m2
23:40 48.4 °F /  9.1 °C 44.1 °F /  6.7 °C 30.24 in /  1023.9 hPa SW 5.0 mph /  8 km/h 5.0 mph /  8 km/h 85 % 0.00 in /  0 mm 0 W/m2
23:50 48.6 °F /  9.2 °C 44.3 °F /  6.8 °C 30.24 in /  1023.9 hPa WSW 2.0 mph /  3.2 km/h 7.0 mph /  11.3 km/h 85 % 0.00 in /  0 mm 0 W/m2
23:55 48.6 °F /  9.2 °C 44.3 °F /  6.8 °C 30.24 in /  1023.9 hPa SW 2.0 mph /  3.2 km/h 7.0 mph /  11.3 km/h 85 % 0.00 in /  0 mm 0 W/m2
Delerius-Weather
Compliments of Weather Underground - 1.75 mb

Data updates at regular intervals.